Time;durP1;ratioP1;P1;durP2;ratioP2;P2;SDS_P1;SDS_P2;PMS_P1;PMS_P2;Temp;Humidity;BMP_temperature;BMP_pressure;BME280_temperature;BME280_humidity;BME280_pressure;Samples;Min_cycle;Max_cycle;Signal;HPM_P1;HPM_P2
2023/01/23 00:01:09;;;;;;;30.67;17.40;;;5.10;59.20;;;;;;5081003;28;20051;-48
2023/01/23 00:03:36;;;;;;;27.25;16.17;;;5.10;59.20;;;;;;5079679;28;20048;-46
2023/01/23 00:06:07;;;;;;;27.58;16.70;;;5.10;59.20;;;;;;5082036;28;20392;-48
2023/01/23 00:08:36;;;;;;;28.75;17.02;;;5.10;59.30;;;;;;5070335;28;20055;-46
2023/01/23 00:11:06;;;;;;;30.20;17.70;;;5.10;59.30;;;;;;5079706;28;20056;-48
2023/01/23 00:13:33;;;;;;;30.08;17.13;;;5.10;59.30;;;;;;5082035;28;20039;-45
2023/01/23 00:16:04;;;;;;;29.25;17.45;;;5.10;59.30;;;;;;5081619;28;20047;-47
2023/01/23 00:18:31;;;;;;;31.88;18.00;;;5.00;59.40;;;;;;5080195;28;20056;-45
2023/01/23 00:20:58;;;;;;;29.20;17.17;;;5.00;59.40;;;;;;5079977;28;20083;-49
2023/01/23 00:23:27;;;;;;;28.77;17.63;;;5.00;59.40;;;;;;5074810;28;20501;-47
2023/01/23 00:25:54;;;;;;;28.20;17.55;;;5.00;59.50;;;;;;5079624;28;20051;-50
2023/01/23 00:28:21;;;;;;;32.75;18.65;;;5.00;59.60;;;;;;5077076;28;20684;-46
2023/01/23 00:30:48;;;;;;;32.72;19.00;;;5.00;59.60;;;;;;5079492;28;20063;-49
2023/01/23 00:33:16;;;;;;;30.98;17.52;;;5.00;59.60;;;;;;5080988;28;20048;-49
2023/01/23 00:35:43;;;;;;;31.08;18.60;;;5.00;59.60;;;;;;5080002;28;20052;-46
2023/01/23 00:38:10;;;;;;;32.83;17.35;;;5.00;59.60;;;;;;5079955;28;20048;-49
2023/01/23 00:40:39;;;;;;;32.55;17.88;;;5.00;59.60;;;;;;5079838;28;20052;-47
2023/01/23 00:43:06;;;;;;;28.98;16.95;;;5.00;59.60;;;;;;5079824;28;20048;-46
2023/01/23 00:45:34;;;;;;;29.23;17.02;;;5.00;59.60;;;;;;5073174;28;20055;-46
2023/01/23 00:48:01;;;;;;;30.67;17.45;;;5.00;59.60;;;;;;5079543;28;20497;-45
2023/01/23 00:50:29;;;;;;;26.40;15.30;;;5.00;59.70;;;;;;5078063;28;20056;-46
2023/01/23 00:52:56;;;;;;;29.17;16.67;;;5.00;59.60;;;;;;5079256;28;20059;-47
2023/01/23 00:55:23;;;;;;;28.25;16.52;;;5.10;59.60;;;;;;5080140;28;20059;-48
2023/01/23 00:57:52;;;;;;;27.48;15.73;;;5.10;59.50;;;;;;5081131;28;20059;-47
2023/01/23 01:00:19;;;;;;;33.10;17.83;;;5.20;59.50;;;;;;5071327;28;20059;-46
2023/01/23 01:02:46;;;;;;;31.42;17.90;;;5.10;59.40;;;;;;5081112;28;20055;-46
2023/01/23 01:05:14;;;;;;;29.50;17.77;;;5.20;59.40;;;;;;5079302;28;20500;-48
2023/01/23 01:07:41;;;;;;;32.10;18.52;;;5.20;59.40;;;;;;5080349;28;20067;-48
2023/01/23 01:10:10;;;;;;;30.30;17.92;;;5.20;59.30;;;;;;5077779;28;20063;-48
2023/01/23 01:12:37;;;;;;;29.33;17.58;;;5.20;59.20;;;;;;5079682;28;20052;-46
2023/01/23 01:15:09;;;;;;;31.33;17.27;;;5.20;59.30;;;;;;5078524;28;20143;-46
2023/01/23 01:17:37;;;;;;;30.58;17.77;;;5.10;59.20;;;;;;5081211;28;20052;-47
2023/01/23 01:20:05;;;;;;;30.50;18.00;;;5.10;59.30;;;;;;5078396;28;20055;-48
2023/01/23 01:22:33;;;;;;;26.60;16.02;;;5.20;59.30;;;;;;5075978;28;20056;-48
2023/01/23 01:25:00;;;;;;;33.80;18.60;;;5.10;59.30;;;;;;5077959;28;20071;-49
2023/01/23 01:27:29;;;;;;;34.50;17.77;;;5.20;59.40;;;;;;5081369;28;20056;-46
2023/01/23 01:29:56;;;;;;;28.60;16.45;;;5.10;59.20;;;;;;5080040;28;20048;-46
2023/01/23 01:32:24;;;;;;;33.05;18.10;;;5.10;59.30;;;;;;5080922;28;20420;-49
2023/01/23 01:34:52;;;;;;;27.90;17.23;;;5.10;59.30;;;;;;5075545;28;20052;-48
2023/01/23 01:37:21;;;;;;;31.35;18.92;;;5.10;59.30;;;;;;5077000;28;20504;-44
2023/01/23 01:39:48;;;;;;;29.98;18.33;;;5.10;59.30;;;;;;5076669;28;20515;-46
2023/01/23 01:42:16;;;;;;;32.28;18.05;;;5.10;59.30;;;;;;5079932;28;20056;-46
2023/01/23 01:44:53;;;;;;;28.00;15.95;;;5.10;59.40;;;;;;5077877;28;20051;-48
2023/01/23 01:47:20;;;;;;;29.00;17.00;;;5.10;59.40;;;;;;5068503;28;20060;-47
2023/01/23 01:49:49;;;;;;;33.05;18.08;;;5.10;59.40;;;;;;5078495;28;20106;-48
2023/01/23 01:52:19;;;;;;;28.40;16.42;;;5.10;59.50;;;;;;5080771;28;20047;-47
2023/01/23 01:54:49;;;;;;;29.08;17.20;;;5.10;59.50;;;;;;5078671;28;20067;-46
2023/01/23 01:57:20;;;;;;;26.50;15.50;;;5.10;59.50;;;;;;5084766;28;20396;-49
2023/01/23 01:59:49;;;;;;;30.02;16.67;;;5.10;59.80;;;;;;5077303;28;20048;-48
2023/01/23 02:02:20;;;;;;;28.95;17.33;;;5.10;59.40;;;;;;5082645;28;20508;-47
2023/01/23 02:04:52;;;;;;;29.88;16.60;;;5.20;59.40;;;;;;5080390;28;20052;-49
2023/01/23 02:07:25;;;;;;;28.38;16.80;;;5.20;59.40;;;;;;5081981;28;20059;-47
2023/01/23 02:09:54;;;;;;;30.95;16.98;;;5.20;59.40;;;;;;5081868;28;20052;-48
2023/01/23 02:12:22;;;;;;;27.55;16.60;;;5.20;59.30;;;;;;5081204;28;20055;-48
2023/01/23 02:14:49;;;;;;;30.77;17.60;;;5.20;59.30;;;;;;5080939;28;20052;-45
2023/01/23 02:17:16;;;;;;;27.88;17.17;;;5.20;59.30;;;;;;5080422;28;20368;-49
2023/01/23 02:19:56;;;;;;;26.48;16.23;;;5.20;59.30;;;;;;5084434;28;20048;-48
2023/01/23 02:22:32;;;;;;;32.50;17.88;;;5.20;59.30;;;;;;5081568;28;20055;-48
2023/01/23 02:25:06;;;;;;;29.63;17.42;;;5.20;59.30;;;;;;5079591;28;20369;-50
2023/01/23 02:27:34;;;;;;;30.30;17.88;;;5.30;59.20;;;;;;5083413;28;20044;-48
2023/01/23 02:30:02;;;;;;;30.52;17.65;;;5.30;59.20;;;;;;5083011;28;20059;-50
2023/01/23 02:32:29;;;;;;;25.95;16.85;;;5.30;59.20;;;;;;5083817;28;20056;-48
2023/01/23 02:35:00;;;;;;;29.48;17.45;;;5.30;59.10;;;;;;5083682;28;20044;-50
2023/01/23 02:37:32;;;;;;;25.10;15.40;;;5.30;59.10;;;;;;5074594;28;20048;-47
2023/01/23 02:40:01;;;;;;;28.02;16.63;;;5.30;59.10;;;;;;5080496;28;20063;-47
2023/01/23 02:42:30;;;;;;;29.90;16.60;;;5.30;59.10;;;;;;5083144;28;20055;-47
2023/01/23 02:44:59;;;;;;;29.85;17.65;;;5.30;59.10;;;;;;5083637;28;20056;-49
2023/01/23 02:47:28;;;;;;;28.63;17.00;;;5.30;58.90;;;;;;5081021;28;20391;-48
2023/01/23 02:49:55;;;;;;;29.20;18.02;;;5.30;58.90;;;;;;5083725;28;20052;-45
2023/01/23 02:52:23;;;;;;;30.98;18.33;;;5.30;58.80;;;;;;5077678;28;20044;-47
2023/01/23 02:54:50;;;;;;;29.83;18.17;;;5.30;58.80;;;;;;5080354;28;20052;-46
2023/01/23 02:57:17;;;;;;;29.92;17.83;;;5.30;58.90;;;;;;5081422;28;20051;-49
2023/01/23 03:02:31;;;;;;;28.67;17.38;;;5.20;58.90;;;;;;5088919;28;20055;-45
2023/01/23 03:04:58;;;;;;;27.52;16.15;;;5.20;59.00;;;;;;5082723;28;20052;-46
2023/01/23 03:07:25;;;;;;;28.35;17.27;;;5.20;59.10;;;;;;5080335;28;20415;-47
2023/01/23 03:09:52;;;;;;;28.17;17.17;;;5.20;59.10;;;;;;5079647;28;20056;-46
2023/01/23 03:12:20;;;;;;;26.60;16.20;;;5.20;59.10;;;;;;5083134;28;20519;-47
2023/01/23 03:14:52;;;;;;;27.65;16.55;;;5.20;59.10;;;;;;5078404;28;20055;-46
2023/01/23 03:17:19;;;;;;;30.15;16.88;;;5.30;59.20;;;;;;5083146;28;20263;-47
2023/01/23 03:19:48;;;;;;;30.27;17.13;;;5.30;59.20;;;;;;5081331;28;20442;-46
2023/01/23 03:22:15;;;;;;;30.17;17.05;;;5.30;59.10;;;;;;5081131;28;20407;-48
2023/01/23 03:24:42;;;;;;;29.77;17.10;;;5.30;59.00;;;;;;5077695;28;20059;-49
2023/01/23 03:27:10;;;;;;;28.52;16.42;;;5.30;59.00;;;;;;5080484;28;20095;-47
2023/01/23 03:32:24;;;;;;;29.23;16.73;;;5.40;58.90;;;;;;5087561;28;20055;-47
2023/01/23 03:34:53;;;;;;;25.98;15.65;;;5.40;58.80;;;;;;5082515;28;20512;-49
2023/01/23 03:37:20;;;;;;;25.83;15.52;;;5.40;58.80;;;;;;5081621;28;20059;-49
2023/01/23 03:42:34;;;;;;;25.63;16.15;;;5.40;58.70;;;;;;5086281;28;20058;-47
2023/01/23 03:45:02;;;;;;;30.08;17.08;;;5.40;58.60;;;;;;5080501;28;20048;-48
2023/01/23 03:47:29;;;;;;;25.15;15.13;;;5.40;58.60;;;;;;5081870;28;20055;-50
2023/01/23 03:49:57;;;;;;;24.17;14.52;;;5.40;58.50;;;;;;5082127;28;20055;-49
2023/01/23 03:52:25;;;;;;;27.30;16.13;;;5.40;58.60;;;;;;5079958;28;20052;-46
2023/01/23 03:54:52;;;;;;;24.30;15.15;;;5.40;58.60;;;;;;5079962;28;20048;-48
2023/01/23 03:57:20;;;;;;;25.40;15.55;;;5.40;58.60;;;;;;5081894;28;21283;-47
2023/01/23 03:59:47;;;;;;;24.65;14.55;;;5.40;58.60;;;;;;5075166;28;20055;-49
2023/01/23 04:02:14;;;;;;;27.55;16.13;;;5.40;58.50;;;;;;5082675;28;20052;-50
2023/01/23 04:04:41;;;;;;;28.20;16.02;;;5.50;58.40;;;;;;5079114;28;20047;-51
2023/01/23 04:07:10;;;;;;;26.48;16.25;;;5.50;58.40;;;;;;5079720;28;20059;-46
2023/01/23 04:09:37;;;;;;;25.30;15.80;;;5.40;58.20;;;;;;5079119;28;20056;-49
2023/01/23 04:12:05;;;;;;;24.95;15.48;;;5.40;58.20;;;;;;5079996;28;20048;-50
2023/01/23 04:14:36;;;;;;;26.17;15.35;;;5.40;58.10;;;;;;5080053;28;20918;-46
2023/01/23 04:17:03;;;;;;;25.08;14.82;;;5.40;58.10;;;;;;5079731;28;20048;-49
2023/01/23 04:19:31;;;;;;;25.42;15.10;;;5.40;58.20;;;;;;5076972;28;20064;-47
2023/01/23 04:21:58;;;;;;;24.67;14.50;;;5.40;58.20;;;;;;5077553;28;20055;-51
2023/01/23 04:24:27;;;;;;;25.48;15.13;;;5.40;58.20;;;;;;5080275;28;20044;-51
2023/01/23 04:26:54;;;;;;;26.38;15.40;;;5.40;58.30;;;;;;5079449;28;20427;-51
2023/01/23 04:29:22;;;;;;;25.88;15.13;;;5.30;58.30;;;;;;5081590;28;20051;-46
2023/01/23 04:31:49;;;;;;;27.48;16.20;;;5.40;58.40;;;;;;5080697;28;20110;-51
2023/01/23 04:34:16;;;;;;;29.38;17.00;;;5.40;58.40;;;;;;5080664;28;20040;-48
2023/01/23 04:36:43;;;;;;;25.73;15.57;;;5.40;58.40;;;;;;5076798;28;20044;-47
2023/01/23 04:39:10;;;;;;;24.48;14.77;;;5.40;58.30;;;;;;5079176;28;20059;-47
2023/01/23 04:41:39;;;;;;;27.73;15.88;;;5.40;58.20;;;;;;5081578;28;20523;-52
2023/01/23 04:44:19;;;;;;;26.92;15.65;;;5.40;58.20;;;;;;5079328;28;20677;-49
2023/01/23 04:46:48;;;;;;;26.58;15.60;;;5.40;58.10;;;;;;5076858;28;20055;-47
2023/01/23 04:49:17;;;;;;;23.38;13.63;;;5.40;58.00;;;;;;5080258;28;20051;-50
2023/01/23 04:51:45;;;;;;;25.60;14.82;;;5.40;58.00;;;;;;5079532;28;20044;-49
2023/01/23 04:54:12;;;;;;;26.35;14.38;;;5.40;58.10;;;;;;5079453;28;20059;-48
2023/01/23 04:56:41;;;;;;;27.77;16.42;;;5.40;58.10;;;;;;5080654;28;20048;-47
2023/01/23 04:59:09;;;;;;;28.73;17.27;;;5.40;58.10;;;;;;5077937;28;20055;-50
2023/01/23 05:01:36;;;;;;;22.60;14.32;;;5.40;58.00;;;;;;5080324;28;20496;-49
2023/01/23 05:04:04;;;;;;;24.80;13.93;;;5.40;58.00;;;;;;5079179;28;20067;-50
2023/01/23 05:06:31;;;;;;;25.17;13.65;;;5.40;58.10;;;;;;5078870;28;20483;-50
2023/01/23 05:08:59;;;;;;;23.98;13.55;;;5.40;58.20;;;;;;5079724;28;20049;-46
2023/01/23 05:11:26;;;;;;;19.70;12.48;;;5.40;58.20;;;;;;5080629;28;20411;-48
2023/01/23 05:13:55;;;;;;;21.40;13.07;;;5.40;58.30;;;;;;5078752;28;20048;-49
2023/01/23 05:16:22;;;;;;;22.23;13.43;;;5.40;58.30;;;;;;5075606;28;20498;-45
2023/01/23 05:18:49;;;;;;;23.42;13.60;;;5.50;58.30;;;;;;5077427;28;20047;-46
2023/01/23 05:21:16;;;;;;;23.83;14.00;;;5.50;58.20;;;;;;5079107;28;20074;-46
2023/01/23 05:23:43;;;;;;;23.73;14.15;;;5.50;58.20;;;;;;5078453;28;20059;-46
2023/01/23 05:26:11;;;;;;;25.60;14.82;;;5.50;58.20;;;;;;5079090;28;20400;-46
2023/01/23 05:28:38;;;;;;;24.30;13.70;;;5.60;58.20;;;;;;5074114;28;20056;-46
2023/01/23 05:31:06;;;;;;;24.10;14.70;;;5.60;58.00;;;;;;5077279;28;20294;-45
2023/01/23 05:33:34;;;;;;;23.33;13.82;;;5.60;57.90;;;;;;5077072;28;20087;-46
2023/01/23 05:36:01;;;;;;;23.45;14.00;;;5.60;57.80;;;;;;5075087;28;20420;-47
2023/01/23 05:38:29;;;;;;;22.90;14.15;;;5.60;57.60;;;;;;5079089;28;20048;-45
2023/01/23 05:40:57;;;;;;;21.75;12.90;;;5.60;57.60;;;;;;5079619;28;20055;-45
2023/01/23 05:43:24;;;;;;;23.08;14.25;;;5.60;57.60;;;;;;5080427;28;20059;-48
2023/01/23 05:45:52;;;;;;;19.98;12.35;;;5.60;57.60;;;;;;5074950;28;20484;-47
2023/01/23 05:48:21;;;;;;;22.38;13.70;;;5.60;57.70;;;;;;5077389;28;21326;-42
2023/01/23 05:50:48;;;;;;;26.05;15.50;;;5.60;57.70;;;;;;5078016;28;20048;-45
2023/01/23 05:53:16;;;;;;;23.50;14.82;;;5.60;57.60;;;;;;5077750;28;20048;-47
2023/01/23 05:55:43;;;;;;;22.42;12.77;;;5.60;57.50;;;;;;5075637;28;20059;-47
2023/01/23 05:58:10;;;;;;;24.40;14.40;;;5.60;57.50;;;;;;5077531;28;20048;-44
2023/01/23 06:00:38;;;;;;;26.40;15.07;;;5.60;57.50;;;;;;5078904;28;20052;-46
2023/01/23 06:03:05;;;;;;;26.17;14.18;;;5.50;57.50;;;;;;5077466;28;20060;-43
2023/01/23 06:05:34;;;;;;;25.35;15.05;;;5.50;57.50;;;;;;5079182;28;20106;-45
2023/01/23 06:08:01;;;;;;;25.42;15.10;;;5.50;57.50;;;;;;5079333;28;20048;-43
2023/01/23 06:10:28;;;;;;;25.05;15.02;;;5.50;57.50;;;;;;5078411;28;20500;-46
2023/01/23 06:12:55;;;;;;;23.70;13.70;;;5.40;57.40;;;;;;5079255;28;20052;-45
2023/01/23 06:15:23;;;;;;;24.83;15.13;;;5.40;57.40;;;;;;5079655;28;20443;-47
2023/01/23 06:17:50;;;;;;;26.65;15.68;;;5.30;57.50;;;;;;5079254;28;20048;-46
2023/01/23 06:20:17;;;;;;;23.60;15.05;;;5.30;57.60;;;;;;5078765;28;20057;-48
2023/01/23 06:22:46;;;;;;;27.58;16.08;;;5.20;57.70;;;;;;5078976;28;20056;-48
2023/01/23 06:25:14;;;;;;;25.42;15.40;;;5.10;57.80;;;;;;5075922;28;20056;-47
2023/01/23 06:27:41;;;;;;;28.38;16.83;;;5.00;57.90;;;;;;5077207;28;20044;-48
2023/01/23 06:30:09;;;;;;;28.88;16.83;;;5.00;58.10;;;;;;5076843;28;20503;-44
2023/01/23 06:32:37;;;;;;;27.90;16.17;;;4.90;58.30;;;;;;5069416;28;20051;-45
2023/01/23 06:35:04;;;;;;;28.33;16.70;;;4.90;58.40;;;;;;5076091;28;20075;-48
2023/01/23 06:37:32;;;;;;;28.60;17.30;;;4.90;58.50;;;;;;5077127;28;20052;-46
2023/01/23 06:40:00;;;;;;;29.23;16.60;;;4.80;58.50;;;;;;5076757;28;20056;-43
2023/01/23 06:42:28;;;;;;;26.67;15.02;;;4.80;58.70;;;;;;5082089;28;20485;-48
2023/01/23 06:44:55;;;;;;;30.60;16.90;;;4.80;58.70;;;;;;5081044;28;20515;-49
2023/01/23 06:47:23;;;;;;;28.52;16.15;;;4.70;58.70;;;;;;5082088;28;20047;-48
2023/01/23 06:49:50;;;;;;;30.35;17.85;;;4.70;58.90;;;;;;5080709;28;20060;-47
2023/01/23 06:52:17;;;;;;;26.23;16.27;;;4.70;58.90;;;;;;5080019;28;20071;-49
2023/01/23 06:54:45;;;;;;;29.13;16.80;;;4.70;58.90;;;;;;5080023;28;20051;-47
2023/01/23 06:57:13;;;;;;;29.15;17.02;;;4.70;59.00;;;;;;5080200;28;20048;-48
2023/01/23 06:59:41;;;;;;;27.88;15.75;;;4.70;59.10;;;;;;5081536;28;20313;-45
2023/01/23 07:02:10;;;;;;;25.50;15.43;;;4.70;59.10;;;;;;5075649;28;20056;-44
2023/01/23 07:04:37;;;;;;;27.23;14.85;;;4.70;59.20;;;;;;5080257;28;20052;-45
2023/01/23 07:07:04;;;;;;;24.35;14.90;;;4.80;59.20;;;;;;5081176;28;20059;-47
2023/01/23 07:09:31;;;;;;;26.88;15.38;;;4.80;59.20;;;;;;5080329;28;20492;-47
2023/01/23 07:11:59;;;;;;;23.65;14.88;;;4.80;59.20;;;;;;5082276;28;20067;-46
2023/01/23 07:14:27;;;;;;;25.10;15.40;;;4.90;59.30;;;;;;5083753;28;20514;-49
2023/01/23 07:16:55;;;;;;;23.42;14.48;;;4.90;59.20;;;;;;5081358;28;20052;-47
2023/01/23 07:19:22;;;;;;;26.48;15.15;;;5.00;59.10;;;;;;5080956;28;20055;-47
2023/01/23 07:21:49;;;;;;;23.17;14.10;;;5.00;59.00;;;;;;5082401;28;20064;-47
2023/01/23 07:24:17;;;;;;;27.40;15.23;;;5.00;58.90;;;;;;5079499;28;20752;-48
2023/01/23 07:26:44;;;;;;;24.50;14.88;;;5.10;58.70;;;;;;5082674;28;20510;-47
2023/01/23 07:29:11;;;;;;;22.60;13.80;;;5.00;58.60;;;;;;5081275;28;20507;-46
2023/01/23 07:31:40;;;;;;;23.85;14.35;;;5.00;58.50;;;;;;5078555;28;20114;-44
2023/01/23 07:34:07;;;;;;;20.10;12.68;;;5.00;58.40;;;;;;5077720;28;20413;-44
2023/01/23 07:36:34;;;;;;;22.13;13.43;;;5.00;58.50;;;;;;5080312;28;20059;-46
2023/01/23 07:39:01;;;;;;;21.55;13.65;;;5.00;58.50;;;;;;5077285;28;20499;-45
2023/01/23 07:41:29;;;;;;;25.20;14.82;;;5.00;58.60;;;;;;5081435;28;20051;-47
2023/01/23 07:43:56;;;;;;;21.00;13.88;;;5.00;58.60;;;;;;5081917;28;20052;-48
2023/01/23 07:46:25;;;;;;;22.92;15.05;;;5.00;58.50;;;;;;5081290;28;20527;-46
2023/01/23 07:48:55;;;;;;;24.00;14.57;;;5.00;58.40;;;;;;5081490;28;20075;-47
2023/01/23 07:51:22;;;;;;;23.63;14.43;;;5.00;58.50;;;;;;5080871;28;20390;-48
2023/01/23 07:53:49;;;;;;;25.30;15.68;;;5.00;58.50;;;;;;5079603;28;20063;-45
2023/01/23 07:56:16;;;;;;;24.42;15.35;;;5.00;58.60;;;;;;5080054;28;20058;-45
2023/01/23 07:58:43;;;;;;;26.65;15.95;;;5.00;58.60;;;;;;5081020;28;20507;-48
2023/01/23 08:01:11;;;;;;;25.05;14.68;;;5.00;58.70;;;;;;5079431;28;20481;-47
2023/01/23 08:03:38;;;;;;;24.23;14.85;;;4.90;58.60;;;;;;5078154;28;20441;-47
2023/01/23 08:06:08;;;;;;;26.90;14.68;;;5.00;58.70;;;;;;5077432;28;20055;-44
2023/01/23 08:08:35;;;;;;;23.77;14.60;;;4.90;58.70;;;;;;5080142;28;20503;-44
2023/01/23 08:11:04;;;;;;;24.45;14.45;;;4.90;58.70;;;;;;5081407;28;20056;-45
2023/01/23 08:13:31;;;;;;;24.63;14.88;;;4.90;58.70;;;;;;5077313;28;20051;-46
2023/01/23 08:15:58;;;;;;;21.27;12.85;;;4.90;58.70;;;;;;5077996;28;20056;-46
2023/01/23 08:18:26;;;;;;;19.70;11.65;;;4.90;58.80;;;;;;5081787;28;20051;-47
2023/01/23 08:20:54;;;;;;;18.88;11.57;;;5.00;58.90;;;;;;5077416;28;20055;-45
2023/01/23 08:23:24;;;;;;;21.63;12.75;;;5.00;59.00;;;;;;5076238;28;20411;-44
2023/01/23 08:25:53;;;;;;;23.90;13.60;;;5.00;59.00;;;;;;5077881;28;20492;-47
2023/01/23 08:28:21;;;;;;;19.73;12.40;;;5.10;58.90;;;;;;5077262;28;20408;-44
2023/01/23 08:30:48;;;;;;;21.33;13.18;;;5.10;58.70;;;;;;5079888;28;20496;-44
2023/01/23 08:33:15;;;;;;;17.55;11.05;;;5.20;58.70;;;;;;5080216;28;20051;-44
2023/01/23 08:35:49;;;;;;;17.88;10.73;;;5.20;58.70;;;;;;5077342;28;20052;-47
2023/01/23 08:38:17;;;;;;;18.53;11.20;;;5.20;58.70;;;;;;5079138;28;20522;-45
2023/01/23 08:40:46;;;;;;;16.52;10.48;;;5.30;58.70;;;;;;5079148;28;20059;-45
2023/01/23 08:43:13;;;;;;;17.60;11.18;;;5.30;58.60;;;;;;5080135;28;20060;-45
2023/01/23 08:45:41;;;;;;;20.05;11.65;;;5.30;58.60;;;;;;5076650;28;20059;-45
2023/01/23 08:48:09;;;;;;;20.45;11.75;;;5.40;58.60;;;;;;5079360;28;20048;-44
2023/01/23 08:50:36;;;;;;;50.80;22.10;;;5.40;58.60;;;;;;5067545;28;20056;-43
2023/01/23 08:53:04;;;;;;;29.13;15.95;;;5.50;58.60;;;;;;5078567;28;20059;-47
2023/01/23 08:55:32;;;;;;;22.27;13.60;;;5.50;58.60;;;;;;5077307;28;20055;-47
2023/01/23 08:58:00;;;;;;;19.90;12.30;;;5.50;58.50;;;;;;5079077;28;20044;-43
2023/01/23 09:00:28;;;;;;;18.33;11.77;;;5.60;58.90;;;;;;5080516;28;20115;-46
2023/01/23 09:02:55;;;;;;;21.15;11.65;;;5.60;58.40;;;;;;5078732;28;20063;-48
2023/01/23 09:05:22;;;;;;;18.50;11.10;;;5.70;58.40;;;;;;5078065;28;20060;-47
2023/01/23 09:07:49;;;;;;;16.75;10.73;;;5.70;58.30;;;;;;5077518;28;20059;-45
2023/01/23 09:10:17;;;;;;;20.20;11.57;;;5.70;58.20;;;;;;5077798;28;20055;-47
2023/01/23 09:12:44;;;;;;;17.38;11.20;;;5.70;58.10;;;;;;5078908;28;20071;-48
2023/01/23 09:15:12;;;;;;;20.48;12.95;;;5.80;58.00;;;;;;5078616;28;20058;-48
2023/01/23 09:17:40;;;;;;;23.33;12.05;;;5.80;57.80;;;;;;5080090;28;20400;-47
2023/01/23 09:20:09;;;;;;;19.90;11.73;;;5.80;57.80;;;;;;5074729;28;20060;-44
2023/01/23 09:22:36;;;;;;;18.52;10.65;;;5.80;57.90;;;;;;5078057;28;20056;-49
2023/01/23 09:25:04;;;;;;;17.75;11.05;;;5.80;57.90;;;;;;5074154;28;20492;-49
2023/01/23 09:27:31;;;;;;;17.00;11.20;;;5.80;57.90;;;;;;5077571;28;20543;-46
2023/01/23 09:33:44;;;;;;;16.08;10.70;;;5.90;57.90;;;;;;5042231;28;20453;-45
2023/01/23 09:40:03;;;;;;;16.88;10.82;;;6.00;57.90;;;;;;4972067;28;20595;-47
2023/01/23 09:42:33;;;;;;;15.38;9.80;;;6.00;57.80;;;;;;5036593;28;20071;-44
2023/01/23 09:45:04;;;;;;;15.05;9.98;;;6.00;57.80;;;;;;5063304;28;20055;-47
2023/01/23 09:47:38;;;;;;;15.63;10.07;;;6.10;57.80;;;;;;5074607;28;20063;-44
2023/01/23 09:50:11;;;;;;;14.93;9.30;;;6.10;57.80;;;;;;5074999;28;20521;-49
2023/01/23 09:52:44;;;;;;;16.00;9.68;;;6.10;57.70;;;;;;5069765;28;20056;-45
2023/01/23 09:55:17;;;;;;;17.25;10.77;;;6.20;57.70;;;;;;5075111;28;20519;-46
2023/01/23 09:57:51;;;;;;;16.30;10.57;;;6.20;57.70;;;;;;5077197;28;20044;-45
2023/01/23 10:00:24;;;;;;;17.23;10.70;;;6.20;57.60;;;;;;5077054;28;20048;-45
2023/01/23 10:02:53;;;;;;;16.30;10.65;;;6.20;57.50;;;;;;5079418;28;20052;-48
2023/01/23 10:05:31;;;;;;;15.95;10.13;;;6.30;57.50;;;;;;5074606;28;20059;-45
2023/01/23 10:08:10;;;;;;;15.77;10.10;;;6.30;57.40;;;;;;5079290;28;20389;-45
2023/01/23 10:10:48;;;;;;;17.38;11.00;;;6.30;57.40;;;;;;5075727;28;20044;-48
2023/01/23 10:13:17;;;;;;;17.23;10.43;;;6.40;57.40;;;;;;5079050;28;20063;-48
2023/01/23 10:16:05;;;;;;;16.20;10.20;;;6.40;57.30;;;;;;5077941;28;20069;-48
2023/01/23 10:18:41;;;;;;;14.73;9.45;;;6.40;57.70;;;;;;5082463;28;20063;-46
2023/01/23 10:21:17;;;;;;;14.48;9.65;;;6.40;57.20;;;;;;5079612;28;20044;-47
2023/01/23 10:23:56;;;;;;;12.85;8.32;;;6.50;57.10;;;;;;5080706;28;20484;-50
2023/01/23 10:26:29;;;;;;;14.15;8.52;;;6.50;57.00;;;;;;5081012;28;20428;-50
2023/01/23 10:29:01;;;;;;;11.68;7.63;;;6.50;57.00;;;;;;5082483;28;20420;-45
2023/01/23 10:31:37;;;;;;;11.10;7.72;;;6.60;57.00;;;;;;5082022;28;20047;-45
2023/01/23 10:34:14;;;;;;;12.63;7.88;;;6.60;56.90;;;;;;5078120;28;20067;-46
2023/01/23 10:36:49;;;;;;;14.77;8.65;;;6.60;56.80;;;;;;5083305;27;20480;-48
2023/01/23 10:39:22;;;;;;;10.88;7.05;;;6.60;56.80;;;;;;5077806;28;20060;-48
2023/01/23 10:41:49;;;;;;;11.15;7.78;;;6.70;56.70;;;;;;5083647;28;20503;-47
2023/01/23 10:44:18;;;;;;;11.32;7.78;;;6.70;56.70;;;;;;5082816;28;20063;-47
2023/01/23 10:46:49;;;;;;;11.88;7.22;;;6.70;56.60;;;;;;5083246;28;20044;-48
2023/01/23 10:49:30;;;;;;;9.80;6.22;;;6.70;56.60;;;;;;5080573;28;20507;-49
2023/01/23 10:51:57;;;;;;;9.32;6.13;;;6.70;56.30;;;;;;5077520;28;20665;-48
2023/01/23 10:54:26;;;;;;;10.93;7.10;;;6.70;56.30;;;;;;5080145;28;20416;-45
2023/01/23 10:56:57;;;;;;;13.30;6.32;;;6.70;56.20;;;;;;5082595;28;20480;-49
2023/01/23 10:59:32;;;;;;;8.38;5.82;;;6.80;56.10;;;;;;5082661;28;20519;-46
2023/01/23 11:02:15;;;;;;;9.85;6.85;;;6.80;56.00;;;;;;5079631;28;20060;-49
2023/01/23 11:04:46;;;;;;;11.13;6.47;;;6.80;55.90;;;;;;5079881;28;20063;-49
2023/01/23 11:07:15;;;;;;;9.85;6.50;;;6.80;55.90;;;;;;5081075;28;20052;-50
2023/01/23 11:09:49;;;;;;;9.52;6.40;;;6.80;55.80;;;;;;5081204;28;20060;-47
2023/01/23 11:12:19;;;;;;;12.07;6.47;;;6.80;55.70;;;;;;5082249;28;20498;-49
2023/01/23 11:14:47;;;;;;;9.45;6.45;;;6.80;55.70;;;;;;5081472;28;20063;-50
2023/01/23 11:17:18;;;;;;;11.95;7.45;;;6.80;55.70;;;;;;5079462;28;20408;-48
2023/01/23 11:19:50;;;;;;;10.73;6.88;;;6.80;55.60;;;;;;5079418;28;20047;-47
2023/01/23 11:22:28;;;;;;;10.50;6.85;;;6.90;55.60;;;;;;5075033;28;20052;-46
2023/01/23 11:24:55;;;;;;;11.15;7.13;;;6.90;55.40;;;;;;5077790;28;20056;-49
2023/01/23 11:27:26;;;;;;;9.50;6.50;;;6.90;55.40;;;;;;5080146;28;20064;-47
2023/01/23 11:30:15;;;;;;;12.15;7.25;;;6.90;55.40;;;;;;5081858;28;20052;-46
2023/01/23 11:32:51;;;;;;;11.75;6.78;;;6.90;55.30;;;;;;5079726;28;20052;-48
2023/01/23 11:35:25;;;;;;;8.98;6.00;;;7.00;55.40;;;;;;5079428;28;20052;-49
2023/01/23 11:37:53;;;;;;;;;;;7.00;55.40;;;;;;5077911;28;20040;-48
2023/01/23 11:40:21;;;;;;;8.95;6.28;;;7.00;55.40;;;;;;5081434;28;19924;-47
2023/01/23 11:42:48;;;;;;;11.15;6.10;;;7.10;55.40;;;;;;5081851;28;20055;-46
2023/01/23 11:45:33;;;;;;;9.45;5.93;;;7.10;55.30;;;;;;5079327;27;20055;-44
2023/01/23 11:48:19;;;;;;;7.57;5.15;;;7.10;55.10;;;;;;5079343;28;20052;-45
2023/01/23 11:50:50;;;;;;;9.60;5.78;;;7.10;55.10;;;;;;5077170;28;20063;-44
2023/01/23 11:53:26;;;;;;;8.20;5.32;;;7.10;54.90;;;;;;5080092;28;20411;-47
2023/01/23 11:56:17;;;;;;;10.68;5.93;;;7.10;54.80;;;;;;5083037;28;20058;-48
2023/01/23 11:59:11;;;;;;;7.65;5.30;;;7.10;54.80;;;;;;5082556;28;20483;-49
2023/01/23 12:01:50;;;;;;;9.00;5.95;;;7.10;54.80;;;;;;5083541;28;20059;-48
2023/01/23 12:04:43;;;;;;;10.02;5.90;;;7.10;54.80;;;;;;5083308;28;20056;-48
2023/01/23 12:07:19;;;;;;;9.82;6.35;;;7.10;54.60;;;;;;5083723;28;20048;-47
2023/01/23 12:10:03;;;;;;;7.28;5.47;;;7.10;54.60;;;;;;5082867;28;20048;-48
2023/01/23 12:12:47;;;;;;;9.50;6.10;;;7.10;54.50;;;;;;5080674;28;20051;-49
2023/01/23 12:15:23;;;;;;;8.18;4.85;;;7.10;54.50;;;;;;5083902;28;20052;-48
2023/01/23 12:17:59;;;;;;;6.97;4.60;;;7.10;54.50;;;;;;5083981;28;20048;-49
2023/01/23 12:20:36;;;;;;;6.53;4.30;;;7.10;54.40;;;;;;5083654;28;20052;-49
2023/01/23 12:23:25;;;;;;;6.22;4.25;;;7.10;54.30;;;;;;5083617;28;20058;-50
2023/01/23 12:26:00;;;;;;;6.18;4.15;;;7.10;54.20;;;;;;5082762;28;20391;-46
2023/01/23 12:28:44;;;;;;;5.90;4.35;;;7.10;54.20;;;;;;5080482;28;20407;-47
2023/01/23 12:31:23;;;;;;;6.57;4.70;;;7.10;54.20;;;;;;5083945;28;20397;-47
2023/01/23 12:34:17;;;;;;;7.82;5.22;;;7.10;54.10;;;;;;5082265;28;20522;-48
2023/01/23 12:37:12;;;;;;;6.75;5.15;;;7.20;54.10;;;;;;5082288;28;20044;-49
2023/01/23 12:40:00;;;;;;;6.05;4.32;;;7.20;54.10;;;;;;5080039;28;20052;-45
2023/01/23 12:42:31;;;;;;;6.22;4.65;;;7.20;54.20;;;;;;5082251;28;20048;-46
2023/01/23 12:45:06;;;;;;;7.50;5.13;;;7.20;54.20;;;;;;5081665;28;20063;-46
2023/01/23 12:47:36;;;;;;;7.78;4.85;;;7.20;54.20;;;;;;5082362;28;20052;-49
2023/01/23 12:50:14;;;;;;;9.85;4.93;;;7.20;54.10;;;;;;5082950;28;20421;-49
2023/01/23 12:52:46;;;;;;;6.40;4.70;;;7.20;54.10;;;;;;5082283;28;20055;-50
2023/01/23 12:55:20;;;;;;;8.52;4.80;;;7.20;54.10;;;;;;5081580;28;20392;-49
2023/01/23 12:57:53;;;;;;;8.83;5.20;;;7.20;54.00;;;;;;5079105;28;20400;-47
2023/01/23 13:00:44;;;;;;;8.15;4.80;;;7.30;54.10;;;;;;5083265;28;20063;-49
2023/01/23 13:03:39;;;;;;;5.97;4.55;;;7.20;53.80;;;;;;5082856;28;20048;-49
2023/01/23 13:06:20;;;;;;;9.27;4.63;;;7.30;53.80;;;;;;5082899;28;20056;-49
2023/01/23 13:08:54;;;;;;;6.45;4.65;;;7.20;53.70;;;;;;5081657;28;20055;-48
2023/01/23 13:11:40;;;;;;;7.38;4.70;;;7.30;53.80;;;;;;5080667;28;20070;-48